RYR583Z LIME-EIDW
Flight info
| Callsign | RYR583Z |
|---|---|
| Flight time | 2h 4m |
| Altitude | 38000 |
| Route | OMETO DCT TERSI DCT AOSTA DCT ORSUD DCT MOLUS DCT IBODI DCT GOTED DCT TRO DCT CLM DCT KOPOR DCT VESAN DCT RATUK DCT SOVAT DCT LESTA UP6 RODOL UL28 LELDO M145 BAGSO BAGSO4L |
| Aircraft | B38M/M-SDE1FGHILORVWXY/HB1 |
Departure
| Time | 2026-05-01 09:13 |
|---|---|
| Airport | Il Caravaggio International Airport (LIME) |
Arrival
| Time | 2026-05-01 11:17 |
|---|---|
| Airport | Dublin Airport (EIDW) |
| Time | Latitude | Longitude | Altitude | Speed | Heading |
|---|---|---|---|---|---|
| 2026-05-01 08:51 | 45.66626 | 9.70115 | 790 ft | 0 kts | 195° |
| 2026-05-01 09:05 | 45.66636 | 9.70119 | 790 ft | 4 kts | 195° |
| 2026-05-01 09:06 | 45.66663 | 9.70128 | 790 ft | 4 kts | 195° |
| 2026-05-01 09:06 | 45.66672 | 9.70132 | 790 ft | 0 kts | 195° |
| 2026-05-01 09:08 | 45.66669 | 9.70127 | 790 ft | 1 kts | 232° |
| 2026-05-01 09:09 | 45.66667 | 9.70097 | 790 ft | 5 kts | 287° |
| 2026-05-01 09:09 | 45.66696 | 9.70064 | 790 ft | 6 kts | 325° |
| 2026-05-01 09:09 | 45.66733 | 9.70015 | 790 ft | 8 kts | 307° |
| 2026-05-01 09:09 | 45.66755 | 9.69930 | 790 ft | 10 kts | 285° |
| 2026-05-01 09:10 | 45.66775 | 9.69825 | 790 ft | 12 kts | 285° |
| 2026-05-01 09:10 | 45.66799 | 9.69701 | 790 ft | 14 kts | 285° |
| 2026-05-01 09:10 | 45.66824 | 9.69559 | 790 ft | 16 kts | 284° |
| 2026-05-01 09:10 | 45.66854 | 9.69400 | 790 ft | 17 kts | 285° |
| 2026-05-01 09:11 | 45.66887 | 9.69225 | 790 ft | 19 kts | 284° |
| 2026-05-01 09:11 | 45.66909 | 9.69032 | 790 ft | 21 kts | 276° |
| 2026-05-01 09:11 | 45.66975 | 9.68881 | 789 ft | 20 kts | 4° |
| 2026-05-01 09:11 | 45.67099 | 9.68943 | 789 ft | 14 kts | 59° |
| 2026-05-01 09:12 | 45.67087 | 9.69055 | 789 ft | 12 kts | 105° |
| 2026-05-01 09:12 | 45.67033 | 9.69348 | 789 ft | 66 kts | 105° |
| 2026-05-01 09:12 | 45.66847 | 9.70348 | 790 ft | 139 kts | 105° |
| 2026-05-01 09:12 | 45.66585 | 9.71875 | 1183 ft | 166 kts | 103° |
| 2026-05-01 09:13 | 45.66348 | 9.73461 | 2180 ft | 168 kts | 106° |
| 2026-05-01 09:13 | 45.65997 | 9.75112 | 2930 ft | 179 kts | 109° |
| 2026-05-01 09:13 | 45.65607 | 9.76885 | 3596 ft | 199 kts | 111° |
| 2026-05-01 09:13 | 45.64685 | 9.78474 | 4126 ft | 226 kts | 149° |
| 2026-05-01 09:14 | 45.63135 | 9.78813 | 5006 ft | 231 kts | 194° |
| 2026-05-01 09:14 | 45.61763 | 9.77657 | 6004 ft | 238 kts | 231° |
| 2026-05-01 09:14 | 45.60923 | 9.75566 | 6781 ft | 250 kts | 252° |
| 2026-05-01 09:14 | 45.60648 | 9.73045 | 7410 ft | 267 kts | 277° |
| 2026-05-01 09:15 | 45.60946 | 9.70352 | 8067 ft | 283 kts | 279° |
| 2026-05-01 09:15 | 45.61212 | 9.67573 | 8997 ft | 287 kts | 279° |
| 2026-05-01 09:15 | 45.61479 | 9.64708 | 9897 ft | 295 kts | 278° |
| 2026-05-01 09:15 | 45.61745 | 9.61766 | 10730 ft | 302 kts | 278° |
| 2026-05-01 09:16 | 45.62016 | 9.58695 | 11227 ft | 320 kts | 278° |
| 2026-05-01 09:16 | 45.62292 | 9.55509 | 11574 ft | 334 kts | 278° |
| 2026-05-01 09:16 | 45.62488 | 9.53261 | 12003 ft | 340 kts | 279° |
| 2026-05-01 09:17 | 45.63179 | 9.45364 | 13817 ft | 349 kts | 279° |
| 2026-05-01 09:17 | 45.63481 | 9.41900 | 14490 ft | 354 kts | 279° |
| 2026-05-01 09:17 | 45.63991 | 9.36025 | 15576 ft | 362 kts | 279° |
| 2026-05-01 09:18 | 45.64301 | 9.32441 | 16291 ft | 366 kts | 279° |
| 2026-05-01 09:18 | 45.64769 | 9.27003 | 17269 ft | 373 kts | 279° |
| 2026-05-01 09:19 | 45.65406 | 9.19561 | 18626 ft | 381 kts | 279° |
| 2026-05-01 09:19 | 45.65727 | 9.15778 | 19165 ft | 384 kts | 279° |
| 2026-05-01 09:19 | 45.66045 | 9.12019 | 19707 ft | 386 kts | 279° |
| 2026-05-01 09:20 | 45.66691 | 9.04340 | 20767 ft | 391 kts | 279° |
| 2026-05-01 09:20 | 45.67339 | 8.96574 | 21809 ft | 396 kts | 279° |
| 2026-05-01 09:21 | 45.67990 | 8.88705 | 22766 ft | 400 kts | 279° |
| 2026-05-01 09:21 | 45.68316 | 8.84741 | 23207 ft | 403 kts | 279° |
| 2026-05-01 09:21 | 45.68971 | 8.76728 | 24002 ft | 407 kts | 279° |
| 2026-05-01 09:22 | 45.69625 | 8.68643 | 24643 ft | 411 kts | 279° |
| 2026-05-01 09:22 | 45.70277 | 8.60531 | 25268 ft | 414 kts | 279° |
| 2026-05-01 09:23 | 45.70604 | 8.56429 | 25561 ft | 416 kts | 279° |
| 2026-05-01 09:23 | 45.71259 | 8.48157 | 26121 ft | 419 kts | 279° |
| 2026-05-01 09:24 | 45.71911 | 8.39840 | 26626 ft | 422 kts | 279° |
| 2026-05-01 09:24 | 45.72237 | 8.35656 | 26884 ft | 423 kts | 279° |
| 2026-05-01 09:24 | 45.72882 | 8.27321 | 27327 ft | 426 kts | 278° |
| 2026-05-01 09:25 | 45.73531 | 8.18848 | 27737 ft | 428 kts | 278° |
| 2026-05-01 09:25 | 45.74176 | 8.10347 | 28148 ft | 431 kts | 278° |
| 2026-05-01 09:26 | 45.74498 | 8.06064 | 28353 ft | 432 kts | 278° |
| 2026-05-01 09:26 | 45.75134 | 7.97554 | 28724 ft | 434 kts | 278° |
| 2026-05-01 09:26 | 45.75453 | 7.93248 | 28896 ft | 435 kts | 278° |
| 2026-05-01 09:27 | 45.76090 | 7.84599 | 29214 ft | 437 kts | 277° |
| 2026-05-01 09:27 | 45.76406 | 7.80261 | 29390 ft | 437 kts | 277° |
| 2026-05-01 09:27 | 45.76721 | 7.75921 | 29518 ft | 438 kts | 277° |
| 2026-05-01 09:28 | 45.77031 | 7.71627 | 29642 ft | 439 kts | 277° |
| 2026-05-01 09:28 | 45.77344 | 7.67276 | 29799 ft | 439 kts | 277° |
| 2026-05-01 09:28 | 45.77657 | 7.62902 | 29890 ft | 441 kts | 277° |
| 2026-05-01 09:28 | 45.77967 | 7.58535 | 30060 ft | 441 kts | 277° |
| 2026-05-01 09:29 | 45.78584 | 7.49778 | 30314 ft | 442 kts | 277° |
| 2026-05-01 09:29 | 45.78890 | 7.45395 | 30455 ft | 443 kts | 277° |
| 2026-05-01 09:30 | 45.80199 | 7.36893 | 30674 ft | 440 kts | 298° |
| 2026-05-01 09:30 | 45.81912 | 7.33272 | 30769 ft | 439 kts | 314° |
| 2026-05-01 09:30 | 45.86612 | 7.27702 | 30923 ft | 440 kts | 324° |
| 2026-05-01 09:31 | 45.89085 | 7.25080 | 31069 ft | 441 kts | 325° |
| 2026-05-01 09:31 | 45.91576 | 7.22488 | 31171 ft | 441 kts | 326° |
| 2026-05-01 09:31 | 45.96568 | 7.17362 | 31409 ft | 444 kts | 326° |
| 2026-05-01 09:32 | 45.99078 | 7.14791 | 31517 ft | 445 kts | 326° |
| 2026-05-01 09:32 | 46.04132 | 7.09614 | 31793 ft | 447 kts | 326° |
| 2026-05-01 09:32 | 46.06664 | 7.07016 | 31919 ft | 448 kts | 326° |
| 2026-05-01 09:33 | 46.09081 | 7.04533 | 32105 ft | 449 kts | 326° |
| 2026-05-01 09:33 | 46.11709 | 7.01830 | 32280 ft | 450 kts | 325° |
| 2026-05-01 09:33 | 46.16814 | 6.96569 | 32648 ft | 453 kts | 325° |
| 2026-05-01 09:34 | 46.19391 | 6.93910 | 32842 ft | 455 kts | 325° |
| 2026-05-01 09:34 | 46.21961 | 6.91253 | 33032 ft | 456 kts | 325° |
| 2026-05-01 09:34 | 46.27115 | 6.85919 | 33496 ft | 458 kts | 325° |
| 2026-05-01 09:35 | 46.29706 | 6.83231 | 33783 ft | 457 kts | 325° |
| 2026-05-01 09:35 | 46.34878 | 6.77859 | 34404 ft | 457 kts | 324° |
| 2026-05-01 09:35 | 46.37430 | 6.75202 | 34707 ft | 456 kts | 324° |
| 2026-05-01 09:36 | 46.40013 | 6.72512 | 35028 ft | 455 kts | 324° |
| 2026-05-01 09:36 | 46.42581 | 6.69834 | 35342 ft | 454 kts | 324° |
| 2026-05-01 09:36 | 46.45045 | 6.66973 | 35652 ft | 453 kts | 315° |
| 2026-05-01 09:36 | 46.47211 | 6.63659 | 35971 ft | 452 kts | 314° |
| 2026-05-01 09:37 | 46.49400 | 6.60372 | 36225 ft | 452 kts | 314° |
| 2026-05-01 09:37 | 46.53754 | 6.53793 | 36789 ft | 451 kts | 314° |
| 2026-05-01 09:37 | 46.55898 | 6.50544 | 37049 ft | 450 kts | 314° |
| 2026-05-01 09:38 | 46.60228 | 6.43967 | 37572 ft | 449 kts | 314° |
| 2026-05-01 09:38 | 46.62388 | 6.40681 | 37840 ft | 448 kts | 314° |
| 2026-05-01 09:38 | 46.64544 | 6.37397 | 38066 ft | 447 kts | 314° |
| 2026-05-01 09:39 | 46.68840 | 6.30841 | 38333 ft | 447 kts | 314° |
| 2026-05-01 09:39 | 46.73093 | 6.24332 | 38303 ft | 445 kts | 314° |
| 2026-05-01 09:40 | 46.79503 | 6.14496 | 38289 ft | 447 kts | 313° |
| 2026-05-01 09:41 | 46.83790 | 6.07895 | 38280 ft | 447 kts | 313° |
| 2026-05-01 09:41 | 46.90187 | 5.98018 | 38279 ft | 448 kts | 313° |
| 2026-05-01 09:42 | 46.94501 | 5.91416 | 38266 ft | 448 kts | 319° |
| 2026-05-01 09:42 | 46.99812 | 5.86710 | 38257 ft | 448 kts | 332° |
| 2026-05-01 09:43 | 47.05318 | 5.82375 | 38272 ft | 449 kts | 332° |
| 2026-05-01 09:43 | 47.10814 | 5.78127 | 38264 ft | 449 kts | 332° |
| 2026-05-01 09:44 | 47.19119 | 5.71710 | 38262 ft | 449 kts | 332° |
| 2026-05-01 09:45 | 47.24657 | 5.67420 | 38262 ft | 450 kts | 332° |
| 2026-05-01 09:45 | 47.32972 | 5.60960 | 38268 ft | 451 kts | 332° |
| 2026-05-01 09:46 | 47.38490 | 5.56659 | 38263 ft | 451 kts | 332° |
| 2026-05-01 09:46 | 47.44060 | 5.52307 | 38264 ft | 452 kts | 332° |
| 2026-05-01 09:47 | 47.49591 | 5.47978 | 38257 ft | 452 kts | 332° |
| 2026-05-01 09:47 | 47.52184 | 5.45386 | 38244 ft | 450 kts | 315° |
| 2026-05-01 09:47 | 47.54209 | 5.41879 | 38279 ft | 449 kts | 307° |
| 2026-05-01 09:48 | 47.58059 | 5.34454 | 38266 ft | 452 kts | 307° |
| 2026-05-01 09:48 | 47.61793 | 5.27021 | 38256 ft | 453 kts | 306° |
| 2026-05-01 09:49 | 47.65528 | 5.19490 | 38256 ft | 453 kts | 306° |
| 2026-05-01 09:49 | 47.69259 | 5.11941 | 38262 ft | 454 kts | 306° |
| 2026-05-01 09:50 | 47.72993 | 5.04362 | 38260 ft | 454 kts | 306° |
| 2026-05-01 09:50 | 47.76724 | 4.96771 | 38249 ft | 454 kts | 306° |
| 2026-05-01 09:51 | 47.80422 | 4.89223 | 38243 ft | 455 kts | 305° |
| 2026-05-01 09:51 | 47.84150 | 4.81594 | 38248 ft | 455 kts | 305° |
| 2026-05-01 09:52 | 47.87845 | 4.74011 | 38248 ft | 455 kts | 305° |
| 2026-05-01 09:52 | 47.91562 | 4.66364 | 38251 ft | 456 kts | 305° |
| 2026-05-01 09:53 | 47.95280 | 4.58690 | 38246 ft | 455 kts | 305° |
| 2026-05-01 09:53 | 47.98992 | 4.51010 | 38253 ft | 456 kts | 305° |
| 2026-05-01 09:54 | 48.02703 | 4.43309 | 38252 ft | 456 kts | 305° |
| 2026-05-01 09:54 | 48.06381 | 4.35654 | 38249 ft | 457 kts | 305° |
| 2026-05-01 09:55 | 48.10090 | 4.27913 | 38253 ft | 457 kts | 304° |
| 2026-05-01 09:55 | 48.13793 | 4.20163 | 38257 ft | 457 kts | 304° |
| 2026-05-01 09:56 | 48.17469 | 4.12449 | 38259 ft | 457 kts | 304° |
| 2026-05-01 09:56 | 48.21182 | 4.04636 | 38268 ft | 457 kts | 304° |
| 2026-05-01 09:57 | 48.24861 | 3.96916 | 38262 ft | 457 kts | 308° |
| 2026-05-01 09:57 | 48.29206 | 3.89907 | 38262 ft | 458 kts | 313° |
| 2026-05-01 09:58 | 48.33606 | 3.82954 | 38262 ft | 459 kts | 313° |
| 2026-05-01 09:58 | 48.38007 | 3.75997 | 38256 ft | 459 kts | 313° |
| 2026-05-01 09:59 | 48.42377 | 3.69069 | 38254 ft | 459 kts | 313° |
| 2026-05-01 09:59 | 48.46771 | 3.62083 | 38249 ft | 459 kts | 313° |
| 2026-05-01 10:00 | 48.51160 | 3.55088 | 38242 ft | 459 kts | 313° |
| 2026-05-01 10:00 | 48.55551 | 3.48072 | 38241 ft | 459 kts | 313° |
| 2026-05-01 10:01 | 48.59936 | 3.41045 | 38242 ft | 459 kts | 313° |
| 2026-05-01 10:01 | 48.64318 | 3.34004 | 38242 ft | 459 kts | 313° |
| 2026-05-01 10:02 | 48.68675 | 3.26986 | 38243 ft | 460 kts | 312° |
| 2026-05-01 10:02 | 48.73056 | 3.19906 | 38237 ft | 460 kts | 313° |
| 2026-05-01 10:03 | 48.77437 | 3.12810 | 38250 ft | 460 kts | 312° |
| 2026-05-01 10:03 | 48.81785 | 3.05751 | 38249 ft | 460 kts | 312° |
| 2026-05-01 10:04 | 48.85735 | 3.00382 | 38224 ft | 458 kts | 330° |
| 2026-05-01 10:04 | 48.91269 | 2.95498 | 38233 ft | 461 kts | 329° |
| 2026-05-01 10:05 | 48.96686 | 2.90715 | 38241 ft | 461 kts | 330° |
| 2026-05-01 10:05 | 49.02239 | 2.85839 | 38238 ft | 461 kts | 330° |
| 2026-05-01 10:06 | 49.07793 | 2.80955 | 38239 ft | 461 kts | 330° |
| 2026-05-01 10:06 | 49.13318 | 2.76083 | 38232 ft | 460 kts | 330° |
| 2026-05-01 10:07 | 49.18870 | 2.71175 | 38237 ft | 460 kts | 330° |
| 2026-05-01 10:07 | 49.24413 | 2.66262 | 38237 ft | 460 kts | 330° |
| 2026-05-01 10:08 | 49.32698 | 2.58895 | 38232 ft | 460 kts | 329° |
| 2026-05-01 10:09 | 49.38231 | 2.53958 | 38233 ft | 460 kts | 329° |
| 2026-05-01 10:09 | 49.43769 | 2.49004 | 38229 ft | 460 kts | 329° |
| 2026-05-01 10:10 | 49.49296 | 2.44050 | 38232 ft | 460 kts | 329° |
| 2026-05-01 10:10 | 49.52165 | 2.41862 | 38219 ft | 458 kts | 342° |
| 2026-05-01 10:10 | 49.58291 | 2.39063 | 38232 ft | 460 kts | 343° |
| 2026-05-01 10:11 | 49.64380 | 2.36268 | 38238 ft | 459 kts | 344° |
| 2026-05-01 10:11 | 49.70508 | 2.33476 | 38232 ft | 459 kts | 343° |
| 2026-05-01 10:12 | 49.76650 | 2.30672 | 38228 ft | 459 kts | 344° |
| 2026-05-01 10:13 | 49.85813 | 2.26478 | 38233 ft | 459 kts | 343° |
| 2026-05-01 10:13 | 49.91944 | 2.23660 | 38232 ft | 459 kts | 343° |
| 2026-05-01 10:14 | 50.01133 | 2.19425 | 38226 ft | 459 kts | 343° |
| 2026-05-01 10:14 | 50.07222 | 2.16610 | 38230 ft | 459 kts | 343° |
| 2026-05-01 10:15 | 50.13351 | 2.13768 | 38229 ft | 459 kts | 343° |
| 2026-05-01 10:15 | 50.19479 | 2.10918 | 38236 ft | 459 kts | 343° |
| 2026-05-01 10:16 | 50.25615 | 2.08058 | 38228 ft | 459 kts | 343° |
| 2026-05-01 10:17 | 50.34767 | 2.03763 | 38234 ft | 459 kts | 341° |
| 2026-05-01 10:17 | 50.40049 | 1.98492 | 38246 ft | 456 kts | 320° |
| 2026-05-01 10:17 | 50.42492 | 1.95308 | 38230 ft | 458 kts | 319° |
| 2026-05-01 10:18 | 50.49752 | 1.85528 | 38237 ft | 457 kts | 318° |
| 2026-05-01 10:19 | 50.54550 | 1.78962 | 38238 ft | 457 kts | 318° |
| 2026-05-01 10:19 | 50.59320 | 1.72415 | 38241 ft | 457 kts | 318° |
| 2026-05-01 10:20 | 50.66504 | 1.62516 | 38243 ft | 457 kts | 318° |
| 2026-05-01 10:20 | 50.71281 | 1.55905 | 38232 ft | 457 kts | 317° |
| 2026-05-01 10:21 | 50.78482 | 1.46092 | 38227 ft | 457 kts | 323° |
| 2026-05-01 10:22 | 50.86075 | 1.36936 | 38229 ft | 457 kts | 321° |
| 2026-05-01 10:23 | 50.93581 | 1.27694 | 38243 ft | 458 kts | 321° |
| 2026-05-01 10:23 | 51.01118 | 1.18369 | 38242 ft | 458 kts | 321° |
| 2026-05-01 10:24 | 51.11150 | 1.05896 | 38235 ft | 458 kts | 321° |
| 2026-05-01 10:25 | 51.21185 | 0.93348 | 38240 ft | 458 kts | 321° |
| 2026-05-01 10:26 | 51.26202 | 0.87047 | 38194 ft | 459 kts | 321° |
| 2026-05-01 10:27 | 51.36201 | 0.74438 | 38224 ft | 459 kts | 321° |
| 2026-05-01 10:28 | 51.43723 | 0.64905 | 38217 ft | 460 kts | 321° |
| 2026-05-01 10:28 | 51.51253 | 0.55318 | 38197 ft | 460 kts | 320° |
| 2026-05-01 10:29 | 51.58742 | 0.45743 | 38205 ft | 460 kts | 320° |
| 2026-05-01 10:30 | 51.68773 | 0.32853 | 38210 ft | 460 kts | 320° |
| 2026-05-01 10:31 | 51.78751 | 0.19956 | 38220 ft | 460 kts | 320° |
| 2026-05-01 10:32 | 51.86240 | 0.10227 | 38204 ft | 460 kts | 320° |
| 2026-05-01 10:33 | 51.96237 | -0.02828 | 38217 ft | 461 kts | 320° |
| 2026-05-01 10:34 | 52.03700 | -0.12624 | 38184 ft | 461 kts | 320° |
| 2026-05-01 10:34 | 52.08690 | -0.19199 | 38177 ft | 461 kts | 320° |
| 2026-05-01 10:35 | 52.16166 | -0.29085 | 38178 ft | 462 kts | 320° |
| 2026-05-01 10:35 | 52.21157 | -0.35709 | 38174 ft | 462 kts | 320° |
| 2026-05-01 10:36 | 52.28592 | -0.45615 | 38176 ft | 462 kts | 320° |
| 2026-05-01 10:37 | 52.33578 | -0.52282 | 38170 ft | 462 kts | 320° |
| 2026-05-01 10:37 | 52.41010 | -0.62259 | 38193 ft | 462 kts | 319° |
| 2026-05-01 10:38 | 52.45987 | -0.68965 | 38173 ft | 462 kts | 319° |
| 2026-05-01 10:38 | 52.50956 | -0.75679 | 38175 ft | 462 kts | 319° |
| 2026-05-01 10:39 | 52.55920 | -0.82408 | 38177 ft | 462 kts | 319° |
| 2026-05-01 10:39 | 52.60858 | -0.89117 | 38174 ft | 462 kts | 319° |
| 2026-05-01 10:40 | 52.65816 | -0.95874 | 38169 ft | 462 kts | 319° |
| 2026-05-01 10:40 | 52.70770 | -1.02643 | 38175 ft | 462 kts | 319° |
| 2026-05-01 10:41 | 52.75579 | -1.09682 | 38184 ft | 461 kts | 314° |
| 2026-05-01 10:42 | 52.82525 | -1.20640 | 38183 ft | 462 kts | 315° |
| 2026-05-01 10:42 | 52.87204 | -1.27964 | 38186 ft | 462 kts | 315° |
| 2026-05-01 10:43 | 52.91880 | -1.35304 | 38190 ft | 463 kts | 315° |
| 2026-05-01 10:43 | 52.96514 | -1.42599 | 38184 ft | 463 kts | 315° |
| 2026-05-01 10:44 | 53.01163 | -1.49941 | 38172 ft | 464 kts | 315° |
| 2026-05-01 10:44 | 53.05838 | -1.57346 | 38167 ft | 464 kts | 315° |
| 2026-05-01 10:45 | 53.10510 | -1.64809 | 38161 ft | 465 kts | 315° |
| 2026-05-01 10:45 | 53.15172 | -1.72287 | 38163 ft | 465 kts | 314° |
| 2026-05-01 10:46 | 53.19815 | -1.79756 | 38154 ft | 466 kts | 314° |
| 2026-05-01 10:46 | 53.24129 | -1.87735 | 38137 ft | 459 kts | 296° |
| 2026-05-01 10:47 | 53.27057 | -1.97232 | 38155 ft | 461 kts | 295° |
| 2026-05-01 10:47 | 53.29952 | -2.06807 | 38154 ft | 462 kts | 294° |
| 2026-05-01 10:48 | 53.32815 | -2.16451 | 38157 ft | 462 kts | 294° |
| 2026-05-01 10:48 | 53.35632 | -2.26117 | 38151 ft | 461 kts | 288° |
| 2026-05-01 10:49 | 53.37619 | -2.36228 | 38156 ft | 460 kts | 285° |
| 2026-05-01 10:49 | 53.39563 | -2.46463 | 38159 ft | 460 kts | 284° |
| 2026-05-01 10:50 | 53.41500 | -2.56695 | 38112 ft | 460 kts | 284° |
| 2026-05-01 10:50 | 53.42457 | -2.61775 | 37933 ft | 455 kts | 284° |
| 2026-05-01 10:50 | 53.43400 | -2.66789 | 37882 ft | 456 kts | 284° |
| 2026-05-01 10:50 | 53.44353 | -2.71879 | 37298 ft | 459 kts | 284° |
| 2026-05-01 10:51 | 53.45318 | -2.77042 | 36261 ft | 468 kts | 284° |
| 2026-05-01 10:51 | 53.45967 | -2.80518 | 35593 ft | 473 kts | 284° |
| 2026-05-01 10:51 | 53.46955 | -2.85827 | 34755 ft | 477 kts | 283° |
| 2026-05-01 10:51 | 53.47941 | -2.91135 | 34256 ft | 473 kts | 283° |
| 2026-05-01 10:52 | 53.49236 | -2.98138 | 33563 ft | 466 kts | 283° |
| 2026-05-01 10:52 | 53.49870 | -3.01575 | 33247 ft | 463 kts | 283° |
| 2026-05-01 10:52 | 53.50817 | -3.06720 | 32735 ft | 459 kts | 283° |
| 2026-05-01 10:52 | 53.51753 | -3.11824 | 32214 ft | 455 kts | 283° |
| 2026-05-01 10:53 | 53.52679 | -3.16889 | 31707 ft | 452 kts | 283° |
| 2026-05-01 10:53 | 53.53599 | -3.21930 | 31209 ft | 449 kts | 283° |
| 2026-05-01 10:53 | 53.54511 | -3.26938 | 30723 ft | 446 kts | 283° |
| 2026-05-01 10:53 | 53.55413 | -3.31911 | 30229 ft | 444 kts | 282° |
| 2026-05-01 10:54 | 53.56310 | -3.36866 | 29670 ft | 441 kts | 282° |
| 2026-05-01 10:54 | 53.57185 | -3.41709 | 29176 ft | 437 kts | 282° |
| 2026-05-01 10:54 | 53.58064 | -3.46592 | 28684 ft | 434 kts | 282° |
| 2026-05-01 10:54 | 53.58934 | -3.51440 | 28215 ft | 430 kts | 282° |
| 2026-05-01 10:55 | 53.59794 | -3.56240 | 27786 ft | 426 kts | 282° |
| 2026-05-01 10:55 | 53.60643 | -3.60997 | 27343 ft | 423 kts | 282° |
| 2026-05-01 10:55 | 53.61495 | -3.65727 | 26895 ft | 421 kts | 284° |
| 2026-05-01 10:55 | 53.62594 | -3.70317 | 26388 ft | 422 kts | 288° |
| 2026-05-01 10:56 | 53.63703 | -3.74872 | 25994 ft | 418 kts | 288° |
| 2026-05-01 10:56 | 53.64788 | -3.79416 | 25576 ft | 415 kts | 288° |
| 2026-05-01 10:56 | 53.65853 | -3.83935 | 25153 ft | 413 kts | 287° |
| 2026-05-01 10:56 | 53.66905 | -3.88423 | 24739 ft | 411 kts | 287° |
| 2026-05-01 10:57 | 53.67939 | -3.92852 | 24318 ft | 409 kts | 287° |
| 2026-05-01 10:57 | 53.68995 | -3.97306 | 23864 ft | 409 kts | 288° |
| 2026-05-01 10:57 | 53.70052 | -4.01756 | 23401 ft | 408 kts | 287° |
| 2026-05-01 10:57 | 53.71101 | -4.06199 | 22958 ft | 405 kts | 286° |
| 2026-05-01 10:58 | 53.71744 | -4.10750 | 22462 ft | 393 kts | 268° |
| 2026-05-01 10:58 | 53.71893 | -4.15332 | 22102 ft | 388 kts | 268° |
| 2026-05-01 10:58 | 53.72081 | -4.19850 | 21744 ft | 385 kts | 268° |
| 2026-05-01 10:58 | 53.72257 | -4.24351 | 21352 ft | 383 kts | 268° |
| 2026-05-01 10:59 | 53.72424 | -4.28772 | 20964 ft | 381 kts | 268° |
| 2026-05-01 10:59 | 53.72590 | -4.33231 | 20579 ft | 378 kts | 268° |
| 2026-05-01 10:59 | 53.72753 | -4.37656 | 20189 ft | 376 kts | 268° |
| 2026-05-01 10:59 | 53.72913 | -4.42051 | 19811 ft | 374 kts | 268° |
| 2026-05-01 11:00 | 53.73070 | -4.46431 | 19376 ft | 373 kts | 268° |
| 2026-05-01 11:00 | 53.73225 | -4.50798 | 18999 ft | 371 kts | 268° |
| 2026-05-01 11:00 | 53.73378 | -4.55142 | 18636 ft | 369 kts | 268° |
| 2026-05-01 11:00 | 53.73529 | -4.59469 | 18229 ft | 368 kts | 268° |
| 2026-05-01 11:01 | 53.73678 | -4.63776 | 17822 ft | 366 kts | 268° |
| 2026-05-01 11:01 | 53.73824 | -4.68053 | 17445 ft | 363 kts | 268° |
| 2026-05-01 11:01 | 53.73966 | -4.72256 | 17070 ft | 361 kts | 268° |
| 2026-05-01 11:01 | 53.74106 | -4.76475 | 16699 ft | 359 kts | 268° |
| 2026-05-01 11:02 | 53.74245 | -4.80665 | 16334 ft | 356 kts | 267° |
| 2026-05-01 11:02 | 53.74383 | -4.84848 | 15922 ft | 355 kts | 268° |
| 2026-05-01 11:02 | 53.74520 | -4.89005 | 15565 ft | 353 kts | 268° |
| 2026-05-01 11:02 | 53.74653 | -4.93126 | 15216 ft | 351 kts | 267° |
| 2026-05-01 11:03 | 53.74785 | -4.97240 | 14859 ft | 349 kts | 267° |
| 2026-05-01 11:03 | 53.74915 | -5.01323 | 14507 ft | 347 kts | 267° |
| 2026-05-01 11:03 | 53.75043 | -5.05385 | 14150 ft | 346 kts | 267° |
| 2026-05-01 11:03 | 53.75169 | -5.09442 | 13770 ft | 345 kts | 267° |
| 2026-05-01 11:04 | 53.75237 | -5.13428 | 13357 ft | 339 kts | 258° |
| 2026-05-01 11:04 | 53.74663 | -5.17187 | 12973 ft | 327 kts | 244° |
| 2026-05-01 11:04 | 53.73932 | -5.20800 | 12678 ft | 323 kts | 245° |
| 2026-05-01 11:04 | 53.73215 | -5.24378 | 12360 ft | 320 kts | 245° |
| 2026-05-01 11:05 | 53.72500 | -5.27918 | 12023 ft | 317 kts | 245° |
| 2026-05-01 11:05 | 53.71789 | -5.31430 | 11695 ft | 315 kts | 245° |
| 2026-05-01 11:05 | 53.71082 | -5.34909 | 11366 ft | 312 kts | 245° |
| 2026-05-01 11:05 | 53.70377 | -5.38369 | 11042 ft | 310 kts | 245° |
| 2026-05-01 11:06 | 53.69676 | -5.41805 | 10705 ft | 308 kts | 245° |
| 2026-05-01 11:06 | 53.68979 | -5.45218 | 10381 ft | 306 kts | 245° |
| 2026-05-01 11:06 | 53.68292 | -5.48601 | 10162 ft | 302 kts | 247° |
| 2026-05-01 11:07 | 53.68154 | -5.55737 | 9512 ft | 304 kts | 268° |
| 2026-05-01 11:07 | 53.68246 | -5.59211 | 9224 ft | 295 kts | 268° |
| 2026-05-01 11:07 | 53.68205 | -5.62583 | 8920 ft | 279 kts | 252° |
| 2026-05-01 11:07 | 53.67442 | -5.65413 | 8702 ft | 254 kts | 224° |
| 2026-05-01 11:08 | 53.66115 | -5.67100 | 8477 ft | 231 kts | 195° |
| 2026-05-01 11:08 | 53.64563 | -5.67683 | 8052 ft | 229 kts | 183° |
| 2026-05-01 11:08 | 53.61365 | -5.68282 | 7364 ft | 233 kts | 182° |
| 2026-05-01 11:09 | 53.59746 | -5.68565 | 7028 ft | 234 kts | 182° |
| 2026-05-01 11:09 | 53.58143 | -5.68835 | 6702 ft | 236 kts | 182° |
| 2026-05-01 11:09 | 53.56499 | -5.69105 | 6355 ft | 237 kts | 182° |
| 2026-05-01 11:10 | 53.53200 | -5.69643 | 5692 ft | 238 kts | 187° |
| 2026-05-01 11:10 | 53.51681 | -5.70761 | 5362 ft | 245 kts | 215° |
| 2026-05-01 11:10 | 53.50515 | -5.72877 | 5080 ft | 247 kts | 226° |
| 2026-05-01 11:10 | 53.49446 | -5.75123 | 4837 ft | 244 kts | 226° |
| 2026-05-01 11:11 | 53.48409 | -5.77315 | 4594 ft | 242 kts | 226° |
| 2026-05-01 11:11 | 53.47371 | -5.79519 | 4333 ft | 239 kts | 226° |
| 2026-05-01 11:11 | 53.46345 | -5.81702 | 4084 ft | 236 kts | 226° |
| 2026-05-01 11:11 | 53.45331 | -5.83862 | 3835 ft | 234 kts | 226° |
| 2026-05-01 11:12 | 53.44331 | -5.85993 | 3576 ft | 231 kts | 226° |
| 2026-05-01 11:12 | 53.43339 | -5.88106 | 3336 ft | 229 kts | 225° |
| 2026-05-01 11:12 | 53.42357 | -5.90197 | 3098 ft | 227 kts | 225° |
| 2026-05-01 11:12 | 53.41392 | -5.92251 | 3006 ft | 220 kts | 225° |
| 2026-05-01 11:13 | 53.40570 | -5.94338 | 2977 ft | 221 kts | 244° |
| 2026-05-01 11:13 | 53.40446 | -5.96947 | 2958 ft | 231 kts | 271° |
| 2026-05-01 11:13 | 53.40624 | -5.99628 | 2999 ft | 227 kts | 270° |
| 2026-05-01 11:13 | 53.40773 | -6.02177 | 2889 ft | 215 kts | 269° |
| 2026-05-01 11:14 | 53.40906 | -6.04658 | 2602 ft | 214 kts | 269° |
| 2026-05-01 11:14 | 53.41041 | -6.07131 | 2299 ft | 213 kts | 270° |
| 2026-05-01 11:14 | 53.41174 | -6.09584 | 2000 ft | 209 kts | 271° |
| 2026-05-01 11:14 | 53.41305 | -6.11956 | 1734 ft | 198 kts | 271° |
| 2026-05-01 11:15 | 53.41426 | -6.14164 | 1497 ft | 183 kts | 271° |
| 2026-05-01 11:15 | 53.41541 | -6.16221 | 1255 ft | 172 kts | 270° |
| 2026-05-01 11:15 | 53.41643 | -6.18177 | 1014 ft | 166 kts | 272° |
| 2026-05-01 11:15 | 53.41740 | -6.20079 | 814 ft | 165 kts | 275° |
| 2026-05-01 11:16 | 53.41853 | -6.21946 | 639 ft | 158 kts | 276° |
| 2026-05-01 11:16 | 53.41952 | -6.23757 | 415 ft | 153 kts | 275° |
| 2026-05-01 11:16 | 53.42048 | -6.25478 | 225 ft | 141 kts | 274° |
| 2026-05-01 11:16 | 53.42124 | -6.26863 | 221 ft | 86 kts | 275° |
| 2026-05-01 11:17 | 53.42161 | -6.27527 | 219 ft | 36 kts | 275° |
| 2026-05-01 11:17 | 53.42232 | -6.27949 | 215 ft | 30 kts | 301° |
| 2026-05-01 11:17 | 53.42296 | -6.28107 | 214 ft | 16 kts | 321° |
| 2026-05-01 11:17 | 53.42362 | -6.28033 | 218 ft | 15 kts | 102° |
| 2026-05-01 11:18 | 53.42352 | -6.27849 | 217 ft | 17 kts | 95° |
| 2026-05-01 11:18 | 53.42340 | -6.27639 | 213 ft | 19 kts | 95° |
| 2026-05-01 11:18 | 53.42327 | -6.27405 | 213 ft | 22 kts | 95° |
| 2026-05-01 11:18 | 53.42312 | -6.27143 | 216 ft | 24 kts | 94° |
| 2026-05-01 11:19 | 53.42298 | -6.26855 | 213 ft | 26 kts | 95° |
| 2026-05-01 11:19 | 53.42281 | -6.26543 | 215 ft | 28 kts | 95° |
| 2026-05-01 11:19 | 53.42270 | -6.26212 | 213 ft | 29 kts | 79° |
| 2026-05-01 11:19 | 53.42392 | -6.25938 | 213 ft | 31 kts | 46° |
| 2026-05-01 11:20 | 53.42529 | -6.25707 | 213 ft | 22 kts | 45° |
| 2026-05-01 11:20 | 53.42623 | -6.25544 | 213 ft | 24 kts | 46° |
| 2026-05-01 11:20 | 53.42737 | -6.25351 | 218 ft | 15 kts | 44° |
| 2026-05-01 11:20 | 53.42795 | -6.25257 | 215 ft | 12 kts | 45° |
| 2026-05-01 11:21 | 53.42868 | -6.25191 | 213 ft | 13 kts | 349° |
| 2026-05-01 11:21 | 53.42961 | -6.25257 | 216 ft | 16 kts | 336° |
| 2026-05-01 11:21 | 53.43069 | -6.25336 | 221 ft | 18 kts | 339° |
| 2026-05-01 11:21 | 53.43182 | -6.25385 | 215 ft | 14 kts | 32° |
| 2026-05-01 11:22 | 53.43210 | -6.25229 | 217 ft | 16 kts | 95° |
| 2026-05-01 11:22 | 53.43199 | -6.25032 | 218 ft | 18 kts | 95° |
| 2026-05-01 11:22 | 53.43187 | -6.24820 | 215 ft | 18 kts | 95° |
| 2026-05-01 11:22 | 53.43167 | -6.24744 | 218 ft | 1 kts | 153° |
| 2026-05-01 11:23 | 53.43162 | -6.24744 | 217 ft | 1 kts | 180° |
| 2026-05-01 11:23 | 53.43136 | -6.24757 | 213 ft | 4 kts | 191° |
| 2026-05-01 11:23 | 53.43113 | -6.24762 | 213 ft | 3 kts | 186° |
| 2026-05-01 11:23 | 53.43101 | -6.24764 | 220 ft | 1 kts | 186° |
| 2026-05-01 11:24 | 53.43099 | -6.24764 | 218 ft | 0 kts | 185° |
| 2026-05-01 11:24 | 53.43097 | -6.24764 | 218 ft | 0 kts | 186° |